Time;durP1;ratioP1;P1;durP2;ratioP2;P2;SDS_P1;SDS_P2;PMS_P1;PMS_P2;Temp;Humidity;BMP_temperature;BMP_pressure;BME280_temperature;BME280_humidity;BME280_pressure;Samples;Min_cycle;Max_cycle;Signal;HPM_P1;HPM_P2
2022/09/26 00:01:09;;;;;;;20.55;8.05;;;;;;;9.65;100.00;100819.47;5083168;28;20020;-65
2022/09/26 00:03:35;;;;;;;20.05;8.05;;;;;;;9.64;100.00;100817.72;5081745;28;20040;-65
2022/09/26 00:06:02;;;;;;;20.40;8.32;;;;;;;9.62;100.00;100814.19;5083965;28;20379;-64
2022/09/26 00:08:28;;;;;;;20.15;8.20;;;;;;;9.62;100.00;100814.19;5081268;28;20379;-65
2022/09/26 00:10:57;;;;;;;21.83;8.50;;;;;;;9.64;100.00;100807.19;5084316;28;20016;-65
2022/09/26 00:13:22;;;;;;;19.48;8.02;;;;;;;9.63;100.00;100799.25;5080907;28;20024;-65
2022/09/26 00:15:47;;;;;;;20.35;8.05;;;;;;;9.63;100.00;100799.25;5083609;28;20077;-65
2022/09/26 00:18:13;;;;;;;20.88;8.00;;;;;;;9.64;100.00;100795.72;5082042;28;20498;-65
2022/09/26 00:20:38;;;;;;;20.90;8.30;;;;;;;9.65;100.00;100787.81;5082482;28;20475;-65
2022/09/26 00:23:03;;;;;;;20.05;8.20;;;;;;;9.63;100.00;100778.13;5083586;28;20032;-64
2022/09/26 00:25:29;;;;;;;20.13;8.68;;;;;;;9.62;100.00;100777.22;5080658;28;20020;-65
2022/09/26 00:27:54;;;;;;;20.15;8.32;;;;;;;9.63;100.00;100780.78;5083116;28;20095;-64
2022/09/26 00:30:19;;;;;;;20.52;8.75;;;;;;;9.66;100.00;100773.75;5081415;28;20025;-65
2022/09/26 00:32:44;;;;;;;20.60;8.40;;;;;;;9.66;100.00;100768.47;5082824;28;20064;-64
2022/09/26 00:35:10;;;;;;;20.83;8.50;;;;;;;9.64;100.00;100758.75;5082381;28;20126;-65
2022/09/26 00:37:35;;;;;;;20.65;8.30;;;;;;;9.63;100.00;100760.53;5081471;28;20090;-65
2022/09/26 00:40:00;;;;;;;22.48;9.20;;;;;;;9.62;100.00;100761.38;5083833;28;20028;-64
2022/09/26 00:42:27;;;;;;;20.50;9.20;;;;;;;9.63;100.00;100757.88;5080528;28;20518;-64
2022/09/26 00:44:55;;;;;;;20.48;8.98;;;;;;;9.63;100.00;100757.88;5084087;28;20036;-64
2022/09/26 00:47:45;;;;;;;22.10;9.05;;;;;;;9.67;100.00;100757.03;5079393;28;20033;-64
2022/09/26 00:50:36;;;;;;;21.92;8.93;;;;;;;9.67;100.00;100749.13;5082031;28;20489;-64
2022/09/26 00:53:07;;;;;;;20.27;8.57;;;;;;;9.69;100.00;100747.38;5080937;28;20035;-64
2022/09/26 00:55:37;;;;;;;21.58;8.70;;;;;;;9.72;100.00;100742.09;5083274;28;20031;-64
2022/09/26 00:58:09;;;;;;;20.05;8.43;;;;;;;9.75;100.00;100731.56;5081194;28;20024;-64
2022/09/26 01:00:35;;;;;;;20.40;8.20;;;;;;;9.82;100.00;100736.91;5083138;28;20024;-64
2022/09/26 01:03:00;;;;;;;20.33;8.40;;;;;;;9.84;100.00;100724.56;5080468;28;20406;-64
2022/09/26 01:05:26;;;;;;;22.38;8.27;;;;;;;9.85;100.00;100721.06;5084089;28;20028;-64
2022/09/26 01:07:55;;;;;;;20.92;8.20;;;;;;;9.88;100.00;100723.72;5080391;28;20463;-64
2022/09/26 01:10:21;;;;;;;20.45;7.45;;;;;;;9.93;100.00;100714.94;5083473;28;20078;-64
2022/09/26 01:12:46;;;;;;;20.00;7.75;;;;;;;9.99;100.00;100702.63;5081204;28;20544;-64
2022/09/26 01:15:12;;;;;;;19.42;7.07;;;;;;;10.05;100.00;100695.63;5082427;28;20024;-64
2022/09/26 01:17:40;;;;;;;18.95;7.07;;;;;;;10.12;100.00;100692.16;5086159;28;20091;-64
2022/09/26 01:20:08;;;;;;;19.67;7.32;;;;;;;10.13;100.00;100695.66;5085018;28;20032;-64
2022/09/26 01:22:53;;;;;;;20.23;6.85;;;;;;;10.11;100.00;100687.72;5086555;28;20114;-64
2022/09/26 01:25:45;;;;;;;20.90;7.30;;;;;;;10.16;100.00;100681.59;5086313;28;20036;-64
2022/09/26 01:28:30;;;;;;;19.52;6.50;;;;;;;10.20;100.00;100675.44;5085511;28;20032;-64
2022/09/26 01:31:12;;;;;;;18.52;6.43;;;;;;;10.16;100.00;100674.53;5083462;28;20035;-64
2022/09/26 01:33:48;;;;;;;18.35;6.30;;;;;;;10.20;100.00;100664.88;5084705;28;20044;-64
2022/09/26 01:36:43;;;;;;;19.10;6.30;;;;;;;10.21;100.00;100653.44;5084775;28;20498;-64
2022/09/26 01:39:27;;;;;;;19.80;6.57;;;;;;;10.18;100.00;100640.19;5085046;28;20020;-64
2022/09/26 01:42:01;;;;;;;18.77;6.10;;;;;;;10.21;100.00;100640.22;5083617;28;20061;-64
2022/09/26 01:44:29;;;;;;;17.80;5.93;;;;;;;10.18;100.00;100640.19;5083508;28;20082;-64
2022/09/26 01:47:07;;;;;;;19.05;6.20;;;;;;;10.20;100.00;100625.25;5083666;28;20028;-64
2022/09/26 01:49:43;;;;;;;19.67;6.50;;;;;;;10.12;100.00;100626.09;5084298;28;20025;-64
2022/09/26 01:52:18;;;;;;;18.73;6.03;;;;;;;10.12;100.00;100619.94;5085841;28;20016;-64
2022/09/26 01:54:53;;;;;;;18.55;6.00;;;;;;;10.14;100.00;100612.03;5085603;28;20021;-64
2022/09/26 01:57:24;;;;;;;18.30;6.00;;;;;;;10.08;100.00;100605.84;5084012;28;20023;-64
2022/09/26 01:59:56;;;;;;;17.73;5.72;;;;;;;10.13;100.00;100600.56;5085986;28;20067;-64
2022/09/26 02:02:26;;;;;;;21.07;6.00;;;;;;;10.07;100.00;100596.16;5083800;28;20432;-64
2022/09/26 02:05:19;;;;;;;19.30;6.00;;;;;;;10.07;100.00;100584.72;5086726;28;20281;-64
2022/09/26 02:07:53;;;;;;;18.45;5.53;;;;;;;10.03;100.00;100586.47;5076781;28;20043;-64
2022/09/26 02:10:28;;;;;;;18.33;5.95;;;;;;;10.06;100.00;100582.94;5085573;28;20032;-64
2022/09/26 02:12:59;;;;;;;17.55;5.45;;;;;;;10.02;100.00;100570.59;5081711;28;20032;-64
2022/09/26 02:15:26;;;;;;;16.80;5.50;;;;;;;10.03;100.00;100573.28;5086206;28;20360;-64
2022/09/26 02:17:56;;;;;;;16.45;5.05;;;;;;;10.03;100.00;100581.19;5083210;28;20419;-64
2022/09/26 02:20:33;;;;;;;16.77;5.20;;;;;;;10.04;100.00;100560.94;5086059;28;20035;-64
2022/09/26 02:23:02;;;;;;;18.25;5.40;;;;;;;10.00;100.00;100565.31;5082845;28;20036;-64
2022/09/26 02:25:29;;;;;;;17.83;5.30;;;;;;;10.04;100.00;100558.31;5082634;28;20029;-64
2022/09/26 02:27:55;;;;;;;18.27;5.55;;;;;;;10.05;100.00;100546.88;5085122;28;20031;-64
2022/09/26 02:30:20;;;;;;;18.17;5.40;;;;;;;10.02;100.00;100545.09;5081694;28;20033;-64
2022/09/26 02:32:46;;;;;;;18.65;5.38;;;;;;;10.00;100.00;100546.84;5084815;28;20028;-64
2022/09/26 02:37:56;;;;;;;16.15;4.93;;;;;;;10.06;100.00;100531.03;5082877;28;20393;-64
2022/09/26 02:40:29;;;;;;;17.55;5.35;;;;;;;10.02;100.00;100537.16;5085186;28;20024;-64
2022/09/26 02:43:25;;;;;;;17.17;5.03;;;;;;;10.02;100.00;100544.19;5082224;28;20055;-64
2022/09/26 02:46:03;;;;;;;18.73;5.40;;;;;;;9.97;100.00;100533.63;5085449;28;20028;-64
2022/09/26 02:48:49;;;;;;;18.23;5.35;;;;;;;9.98;100.00;100529.25;5082031;28;20032;-64
2022/09/26 02:51:24;;;;;;;17.38;5.30;;;;;;;9.97;100.00;100519.56;5084326;28;20020;-64
2022/09/26 02:54:03;;;;;;;18.98;5.43;;;;;;;9.97;100.00;100524.84;5082958;28;20032;-64
2022/09/26 02:56:40;;;;;;;16.75;4.90;;;;;;;9.96;100.00;100513.41;5082229;28;20069;-64
2022/09/26 02:59:25;;;;;;;17.02;4.90;;;;;;;9.94;100.00;100510.72;5082949;28;20050;-63
2022/09/26 03:02:06;;;;;;;15.93;4.53;;;;;;;9.93;100.00;100508.09;5082327;28;20596;-63
2022/09/26 03:05:07;;;;;;;16.38;4.60;;;;;;;9.94;100.00;100500.16;5082161;28;20383;-63
2022/09/26 03:07:40;;;;;;;15.20;4.43;;;;;;;9.93;100.00;100489.59;5080866;28;20028;-63
2022/09/26 03:10:07;;;;;;;15.30;4.50;;;;;;;9.92;100.00;100493.16;5084596;28;20028;-63
2022/09/26 03:12:34;;;;;;;16.98;4.80;;;;;;;9.86;100.00;100486.09;5082229;28;20032;-64
2022/09/26 03:15:02;;;;;;;18.48;5.07;;;;;;;9.77;100.00;100493.97;5085425;28;20056;-64
2022/09/26 03:17:30;;;;;;;17.15;4.47;;;;;;;9.55;100.00;100490.41;5082058;28;20024;-64
2022/09/26 03:20:03;;;;;;;18.00;4.82;;;;;;;9.44;100.00;100477.19;5081569;28;20395;-64
2022/09/26 03:22:28;;;;;;;;;;;;;;;9.38;100.00;100477.19;5085355;28;20538;-64
2022/09/26 03:24:58;;;;;;;15.70;4.55;;;;;;;9.45;100.00;100472.78;5081697;28;19944;-64
2022/09/26 03:27:24;;;;;;;16.05;4.45;;;;;;;9.56;100.00;100464.03;5085022;28;20028;-64
2022/09/26 03:29:49;;;;;;;15.05;4.22;;;;;;;9.56;100.00;100463.16;5082275;28;20509;-64
2022/09/26 03:32:14;;;;;;;17.45;4.78;;;;;;;9.54;100.00;100457.00;5083301;28;20044;-63
2022/09/26 03:34:40;;;;;;;15.85;4.60;;;;;;;9.56;100.00;100448.19;5083484;28;20034;-64
2022/09/26 03:37:06;;;;;;;17.52;4.65;;;;;;;9.61;100.00;100450.88;5082124;28;20028;-64
2022/09/26 03:39:31;;;;;;;15.15;4.30;;;;;;;9.73;100.00;100442.09;5084541;28;20437;-64
2022/09/26 03:41:57;;;;;;;16.05;4.55;;;;;;;9.60;100.00;100426.22;5081072;28;20033;-64
2022/09/26 03:44:24;;;;;;;16.88;4.65;;;;;;;9.44;100.00;100424.44;5084238;28;20020;-64
2022/09/26 03:46:50;;;;;;;17.48;4.70;;;;;;;9.26;100.00;100419.97;5082302;28;20032;-64
2022/09/26 03:49:15;;;;;;;18.23;5.00;;;;;;;9.16;100.00;100427.00;5083285;28;20069;-64
2022/09/26 03:51:41;;;;;;;17.15;4.88;;;;;;;9.07;100.00;100419.94;5083379;28;20470;-64
2022/09/26 03:54:07;;;;;;;17.88;4.90;;;;;;;9.01;100.00;100419.00;5082322;28;20066;-64
2022/09/26 03:56:32;;;;;;;17.27;4.90;;;;;;;9.00;100.00;100418.13;5084419;28;20095;-63
2022/09/26 03:58:57;;;;;;;17.25;5.10;;;;;;;9.02;100.00;100418.16;5080915;28;20538;-63
2022/09/26 04:01:23;;;;;;;19.60;5.00;;;;;;;8.96;100.00;100394.41;5084242;28;20035;-63
2022/09/26 04:03:49;;;;;;;16.90;5.00;;;;;;;8.94;100.00;100404.94;5081960;28;20042;-63
2022/09/26 04:06:18;;;;;;;19.90;5.35;;;;;;;8.93;100.00;100397.91;5082902;28;20087;-63
2022/09/26 04:08:45;;;;;;;18.13;5.18;;;;;;;8.90;100.00;100395.25;5082979;28;20051;-63
2022/09/26 04:11:14;;;;;;;18.45;5.07;;;;;;;8.84;100.00;100398.75;5082020;28;20032;-63
2022/09/26 04:13:42;;;;;;;16.40;5.10;;;;;;;8.81;100.00;100382.00;5083274;28;20442;-63
2022/09/26 04:16:08;;;;;;;18.98;5.43;;;;;;;8.80;100.00;100372.38;5081932;28;20052;-63
2022/09/26 04:18:34;;;;;;;18.98;5.82;;;;;;;8.76;100.00;100367.94;5083793;28;20458;-63
2022/09/26 04:21:02;;;;;;;18.15;5.07;;;;;;;8.75;100.00;100360.91;5080757;28;20029;-63
2022/09/26 04:23:29;;;;;;;18.70;5.68;;;;;;;8.82;100.00;100358.28;5081298;28;20079;-63
2022/09/26 04:25:55;;;;;;;20.40;5.47;;;;;;;8.86;100.00;100348.66;5083731;28;20525;-63
2022/09/26 04:28:20;;;;;;;19.45;5.35;;;;;;;8.91;100.00;100344.28;5081395;28;20024;-63
2022/09/26 04:30:46;;;;;;;18.73;5.30;;;;;;;9.00;100.00;100331.13;5082934;28;20020;-63
2022/09/26 04:33:11;;;;;;;17.77;5.00;;;;;;;9.06;100.00;100333.78;5082560;28;20111;-63
2022/09/26 04:35:37;;;;;;;18.45;5.22;;;;;;;9.16;100.00;100346.97;5081165;28;20123;-63
2022/09/26 04:38:03;;;;;;;18.55;5.00;;;;;;;9.21;100.00;100332.06;5083898;28;20051;-63
2022/09/26 04:40:30;;;;;;;18.40;4.90;;;;;;;9.27;100.00;100326.78;5080435;28;20025;-63
2022/09/26 04:42:55;;;;;;;17.25;4.88;;;;;;;9.28;100.00;100320.63;5084072;28;20032;-63
2022/09/26 04:45:21;;;;;;;16.67;4.68;;;;;;;9.23;100.00;100307.44;5081511;28;20025;-64
2022/09/26 04:47:46;;;;;;;18.75;5.18;;;;;;;9.23;100.00;100296.00;5082836;28;20081;-64
2022/09/26 04:50:11;;;;;;;17.48;4.93;;;;;;;9.24;100.00;100292.50;5082722;28;20463;-63
2022/09/26 04:52:36;;;;;;;16.52;4.70;;;;;;;9.24;100.00;100277.53;5085352;28;20596;-64
2022/09/26 04:55:02;;;;;;;18.02;5.07;;;;;;;9.14;100.00;100281.03;5087706;28;20028;-63
2022/09/26 04:57:28;;;;;;;16.70;5.13;;;;;;;9.01;100.00;100277.53;5084622;28;20024;-64
2022/09/26 04:59:53;;;;;;;17.33;4.85;;;;;;;8.92;100.00;100271.34;5087209;28;20024;-64
2022/09/26 05:02:19;;;;;;;17.35;5.00;;;;;;;8.92;100.00;100255.53;5085063;28;20028;-63
2022/09/26 05:04:46;;;;;;;19.50;5.30;;;;;;;8.83;100.00;100256.41;5086031;28;20027;-64
2022/09/26 05:07:13;;;;;;;18.95;5.57;;;;;;;8.80;100.00;100248.50;5086057;28;20024;-64
2022/09/26 05:09:38;;;;;;;16.75;5.28;;;;;;;8.81;100.00;100248.50;5085010;28;20048;-63
2022/09/26 05:12:04;;;;;;;17.52;5.30;;;;;;;8.87;100.00;100247.63;5087369;28;20058;-63
2022/09/26 05:14:29;;;;;;;17.95;5.18;;;;;;;8.88;100.00;100233.56;5083943;28;20020;-63
2022/09/26 05:16:54;;;;;;;18.75;5.47;;;;;;;8.80;100.00;100225.66;5087035;28;20060;-64
2022/09/26 05:19:20;;;;;;;17.83;5.22;;;;;;;8.73;100.00;100222.09;5085089;28;20107;-64
2022/09/26 05:21:45;;;;;;;19.58;5.95;;;;;;;8.65;100.00;100221.22;5085671;28;20056;-64
2022/09/26 05:26:55;;;;;;;19.05;5.93;;;;;;;8.59;100.00;100213.31;5086842;28;20117;-64
2022/09/26 05:29:20;;;;;;;19.92;6.03;;;;;;;8.60;100.00;100215.06;5084468;28;20082;-64
2022/09/26 05:31:46;;;;;;;19.98;5.75;;;;;;;8.60;100.00;100212.41;5084253;28;20056;-64
2022/09/26 05:34:12;;;;;;;19.88;6.00;;;;;;;8.57;100.00;100203.66;5085646;28;20467;-63
2022/09/26 05:36:38;;;;;;;19.20;5.97;;;;;;;8.57;100.00;100207.16;5084369;28;20044;-64
2022/09/26 05:40:55;;;;;;;19.35;5.88;;;;;;;8.60;100.00;100209.78;5086654;28;20054;-64
2022/09/26 05:41:52;;;;;;;20.30;6.13;;;;;;;8.68;100.00;100204.56;5085848;28;20486;-64
2022/09/26 05:44:18;;;;;;;21.15;6.18;;;;;;;8.72;100.00;100201.91;5084699;28;20024;-64
2022/09/26 05:46:44;;;;;;;19.77;5.68;;;;;;;8.76;100.00;100202.78;5085538;28;20374;-64
2022/09/26 05:49:10;;;;;;;19.92;5.70;;;;;;;8.80;100.00;100201.06;5085594;28;20024;-65
2022/09/26 05:51:36;;;;;;;20.83;6.70;;;;;;;8.78;100.00;100202.78;5083901;28;20029;-64
2022/09/26 05:54:02;;;;;;;20.02;6.40;;;;;;;8.78;100.00;100205.44;5086983;28;20027;-66
2022/09/26 05:56:27;;;;;;;21.70;6.45;;;;;;;8.73;100.00;100195.75;5083395;28;20016;-64
2022/09/26 05:58:53;;;;;;;20.63;5.80;;;;;;;8.70;100.00;100203.66;5086213;28;20028;-64
2022/09/26 06:01:19;;;;;;;19.80;6.35;;;;;;;8.71;100.00;100192.25;5084126;28;20024;-64
2022/09/26 06:03:45;;;;;;;19.58;6.00;;;;;;;8.69;100.00;100199.28;5083445;28;20073;-64
2022/09/26 06:06:14;;;;;;;20.10;6.35;;;;;;;8.68;100.00;100194.88;5085673;28;20035;-64
2022/09/26 06:08:40;;;;;;;19.60;5.93;;;;;;;8.68;100.00;100179.06;5084165;28;20032;-64
2022/09/26 06:11:16;;;;;;;19.98;5.95;;;;;;;8.80;100.00;100172.06;5085882;28;20027;-64
2022/09/26 06:13:44;;;;;;;19.92;6.07;;;;;;;8.77;100.00;100174.69;5084440;28;20035;-64
2022/09/26 06:16:17;;;;;;;19.55;5.75;;;;;;;8.79;100.00;100165.91;5085502;28;20103;-64
2022/09/26 06:18:43;;;;;;;19.65;5.65;;;;;;;8.78;100.00;100155.34;5084088;28;20517;-64
2022/09/26 06:21:10;;;;;;;20.92;5.93;;;;;;;8.84;100.00;100147.44;5085344;28;20115;-64
2022/09/26 06:23:36;;;;;;;20.33;6.07;;;;;;;8.88;100.00;100130.75;5083087;28;20467;-63
2022/09/26 06:26:04;;;;;;;19.52;5.97;;;;;;;8.91;100.00;100128.13;5083271;28;20093;-63
2022/09/26 06:28:30;;;;;;;18.67;6.00;;;;;;;9.00;100.00;100114.94;5086371;28;20028;-63
2022/09/26 06:30:56;;;;;;;18.63;5.30;;;;;;;9.06;100.00;100107.03;5079208;28;20019;-63
2022/09/26 06:33:22;;;;;;;20.13;5.60;;;;;;;9.05;100.00;100102.63;5079006;28;20032;-63
2022/09/26 06:35:58;;;;;;;19.65;5.55;;;;;;;9.11;100.00;100111.41;5079432;28;20044;-64
2022/09/26 06:38:24;;;;;;;16.98;4.93;;;;;;;9.18;100.00;100098.22;5079876;28;20400;-63
2022/09/26 06:40:51;;;;;;;19.17;5.18;;;;;;;9.18;100.00;100098.22;5077298;28;20024;-63
2022/09/26 06:43:17;;;;;;;17.58;5.30;;;;;;;9.21;100.00;100078.88;5080300;28;20061;-63
2022/09/26 06:45:44;;;;;;;17.77;5.03;;;;;;;9.27;100.00;100083.25;5079960;28;20119;-62
2022/09/26 06:48:10;;;;;;;17.58;5.10;;;;;;;9.28;100.00;100067.44;5089319;28;20482;-63
2022/09/26 06:50:36;;;;;;;18.52;5.05;;;;;;;9.22;100.00;100059.56;5086404;28;20051;-63
2022/09/26 06:53:03;;;;;;;16.95;4.95;;;;;;;9.20;100.00;100056.03;5090189;28;20474;-63
2022/09/26 06:55:28;;;;;;;18.38;5.05;;;;;;;9.13;100.00;100054.28;5089155;28;20124;-64
2022/09/26 06:57:54;;;;;;;17.60;4.70;;;;;;;9.24;100.00;100039.31;5088693;28;20095;-62
2022/09/26 07:00:19;;;;;;;15.73;4.57;;;;;;;9.39;100.00;100039.28;5087827;28;20035;-63
2022/09/26 07:02:50;;;;;;;16.73;4.57;;;;;;;9.53;100.00;100048.88;5088911;28;20451;-62
2022/09/26 07:05:15;;;;;;;15.13;4.40;;;;;;;9.65;100.00;100046.19;5087235;28;20466;-63
2022/09/26 07:07:42;;;;;;;14.07;4.20;;;;;;;9.80;100.00;100039.06;5085552;28;20038;-62
2022/09/26 07:10:09;;;;;;;16.55;4.20;;;;;;;9.85;100.00;100034.66;5090703;28;20024;-63
2022/09/26 07:12:36;;;;;;;15.25;4.30;;;;;;;9.91;100.00;100027.56;5087064;28;20024;-63
2022/09/26 07:15:02;;;;;;;16.58;3.90;;;;;;;9.94;100.00;100006.44;5085926;28;20547;-62
2022/09/26 07:17:28;;;;;;;15.00;4.20;;;;;;;10.02;100.00;100016.97;5086240;28;20386;-62
2022/09/26 07:19:53;;;;;;;13.98;4.05;;;;;;;10.00;100.00;99991.44;5085798;28;20110;-62
2022/09/26 07:22:18;;;;;;;15.07;4.32;;;;;;;10.00;100.00;100008.16;5086079;28;20482;-63
2022/09/26 07:24:45;;;;;;;15.90;4.38;;;;;;;10.04;100.00;100003.75;5087581;28;20056;-63
2022/09/26 07:27:11;;;;;;;13.43;3.67;;;;;;;10.00;100.00;100007.28;5089565;28;20405;-61
2022/09/26 07:29:36;;;;;;;13.93;3.90;;;;;;;10.05;100.00;100001.09;5085053;28;20054;-63
2022/09/26 07:32:02;;;;;;;14.40;4.07;;;;;;;10.07;100.00;100001.94;5091244;28;20107;-62
2022/09/26 07:34:28;;;;;;;14.02;3.97;;;;;;;10.11;100.00;99998.41;5085967;28;20042;-62
2022/09/26 07:36:54;;;;;;;15.85;4.03;;;;;;;10.12;100.00;100002.81;5088314;28;20047;-62
2022/09/26 07:39:19;;;;;;;14.77;4.20;;;;;;;10.15;100.00;100009.84;5088015;28;20020;-62
2022/09/26 07:41:45;;;;;;;14.20;3.90;;;;;;;10.19;100.00;100008.91;5087269;28;20031;-62
2022/09/26 07:44:10;;;;;;;13.05;4.00;;;;;;;10.21;100.00;99993.06;5087513;28;20102;-61
2022/09/26 07:52:03;;;;;;;13.77;4.03;;;;;;;10.27;100.00;99977.16;5087140;28;20057;-63
2022/09/26 07:54:29;;;;;;;14.52;4.18;;;;;;;10.35;100.00;99972.72;5089469;28;20024;-62
2022/09/26 07:56:54;;;;;;;15.10;3.95;;;;;;;10.34;100.00;99978.91;5088175;28;20114;-63
2022/09/26 07:59:21;;;;;;;15.20;4.10;;;;;;;10.38;100.00;99983.28;5082747;28;20042;-63
2022/09/26 08:01:47;;;;;;;14.77;3.88;;;;;;;10.42;100.00;99981.47;5082890;28;20599;-63
2022/09/26 08:04:13;;;;;;;17.25;4.10;;;;;;;10.49;100.00;99969.97;5082295;28;20060;-63
2022/09/26 08:06:39;;;;;;;13.65;3.90;;;;;;;10.55;100.00;99969.88;5083836;28;20105;-63
2022/09/26 08:09:04;;;;;;;13.20;4.00;;;;;;;10.61;100.00;99961.03;5084547;28;20060;-64
2022/09/26 08:11:30;;;;;;;15.23;4.10;;;;;;;10.61;100.00;99963.69;5085223;28;20027;-64
2022/09/26 08:13:55;;;;;;;17.73;4.10;;;;;;;10.58;100.00;99958.41;5081526;28;20020;-64
2022/09/26 08:16:24;;;;;;;16.80;4.20;;;;;;;10.60;100.00;99953.97;5087698;28;20036;-64
2022/09/26 08:18:50;;;;;;;13.02;3.88;;;;;;;10.62;100.00;99947.81;5084959;28;20021;-64
2022/09/26 08:21:16;;;;;;;16.27;3.92;;;;;;;10.64;100.00;99955.72;5083952;28;20117;-64
2022/09/26 08:23:42;;;;;;;17.52;4.15;;;;;;;10.68;100.00;99951.28;5087587;28;20028;-62
2022/09/26 08:26:07;;;;;;;14.20;3.80;;;;;;;10.69;100.00;99950.38;5086780;28;20020;-61
2022/09/26 08:28:34;;;;;;;15.63;4.07;;;;;;;10.65;100.00;99965.41;5090686;28;20123;-62
2022/09/26 08:31:04;;;;;;;14.20;4.10;;;;;;;10.62;100.00;99949.56;5080029;28;20028;-64
2022/09/26 08:33:34;;;;;;;16.25;4.05;;;;;;;10.60;100.00;99940.78;5081945;28;20034;-64
2022/09/26 08:36:10;;;;;;;15.50;3.70;;;;;;;10.62;100.00;99941.66;5086098;28;20043;-63
2022/09/26 08:38:37;;;;;;;16.75;3.90;;;;;;;10.64;100.00;99948.69;5083498;28;20025;-62
2022/09/26 08:41:12;;;;;;;16.80;4.30;;;;;;;10.66;100.00;99945.13;5080132;28;20471;-62
2022/09/26 08:43:55;;;;;;;17.25;4.10;;;;;;;10.71;100.00;99941.53;5082785;28;20383;-62
2022/09/26 08:49:26;;;;;;;16.25;3.85;;;;;;;10.83;100.00;99932.59;5083113;28;20486;-64
2022/09/26 08:51:54;;;;;;;13.07;3.97;;;;;;;10.91;100.00;99937.81;5075870;28;20033;-66
2022/09/26 08:54:36;;;;;;;14.45;3.72;;;;;;;10.98;100.00;99926.28;5080997;28;20016;-66
2022/09/26 08:57:13;;;;;;;13.73;3.72;;;;;;;10.98;100.00;99924.50;5085517;28;20073;-62
2022/09/26 08:59:42;;;;;;;16.02;4.07;;;;;;;10.99;100.00;99933.31;5088785;28;20051;-62
2022/09/26 09:02:33;;;;;;;16.42;3.97;;;;;;;10.98;100.00;99931.56;5089452;28;20051;-61
2022/09/26 09:05:04;;;;;;;14.77;3.83;;;;;;;10.92;100.00;99926.34;5086175;28;20480;-62
2022/09/26 09:07:30;;;;;;;16.83;4.03;;;;;;;10.89;100.00;99923.72;5084634;28;20027;-62
2022/09/26 09:10:02;;;;;;;16.88;4.30;;;;;;;10.68;100.00;99924.84;5088610;28;20422;-63
2022/09/26 09:12:53;;;;;;;16.50;4.60;;;;;;;10.46;100.00;99918.00;5088248;28;20467;-62
2022/09/26 09:15:51;;;;;;;17.85;4.65;;;;;;;10.29;100.00;99912.88;5085822;28;20103;-62
2022/09/26 09:18:34;;;;;;;19.10;4.93;;;;;;;10.23;100.00;99912.91;5090077;28;20075;-63
2022/09/26 09:21:18;;;;;;;18.33;4.70;;;;;;;10.27;100.00;99900.56;5085688;28;20017;-63
2022/09/26 09:24:17;;;;;;;20.73;5.28;;;;;;;10.26;100.00;99897.03;5087100;28;20537;-63
2022/09/26 09:26:59;;;;;;;17.40;5.10;;;;;;;10.26;100.00;99889.09;5062340;28;20040;-63
2022/09/26 09:29:57;;;;;;;18.33;4.97;;;;;;;10.22;100.00;99900.63;5089848;28;21738;-63
2022/09/26 09:32:29;;;;;;;18.92;5.35;;;;;;;10.17;100.00;99894.47;5088286;28;20028;-63
2022/09/26 09:34:55;;;;;;;20.45;6.15;;;;;;;10.12;100.00;99883.09;5089037;28;20075;-63
2022/09/26 09:37:24;;;;;;;22.05;6.50;;;;;;;10.19;100.00;99870.69;5090280;28;20036;-62
2022/09/26 09:39:51;;;;;;;20.42;6.45;;;;;;;10.19;100.00;99868.91;5087858;28;20032;-63
2022/09/26 09:42:39;;;;;;;19.40;6.00;;;;;;;10.17;100.00;99861.91;5089220;28;20024;-60
2022/09/26 09:45:15;;;;;;;20.55;6.40;;;;;;;10.21;100.00;99858.38;5090295;28;20074;-61
2022/09/26 09:47:41;;;;;;;20.08;6.30;;;;;;;10.20;100.00;99852.19;5086428;28;20028;-61
2022/09/26 09:50:26;;;;;;;20.23;6.40;;;;;;;10.17;100.00;99851.34;5085352;28;20420;-62
2022/09/26 09:53:35;;;;;;;20.40;6.40;;;;;;;10.24;100.00;99842.50;5087045;28;20024;-62
2022/09/26 09:56:19;;;;;;;21.48;7.28;;;;;;;10.34;100.00;99844.16;5032287;28;20037;-63
2022/09/26 09:59:08;;;;;;;21.15;6.95;;;;;;;10.35;100.00;99835.34;5043973;28;20230;-62
2022/09/26 10:01:41;;;;;;;21.80;7.43;;;;;;;10.32;100.00;99819.50;5034747;28;20040;-64
2022/09/26 10:04:19;;;;;;;19.80;7.07;;;;;;;10.30;100.00;99821.28;5035218;28;20033;-64
2022/09/26 10:06:45;;;;;;;19.50;6.85;;;;;;;10.37;100.00;99819.47;5032619;28;20030;-65
2022/09/26 10:09:36;;;;;;;21.27;7.25;;;;;;;10.43;100.00;99812.34;5036855;28;20621;-62
2022/09/26 10:12:11;;;;;;;20.85;7.00;;;;;;;10.38;100.00;99808.00;5037147;28;20036;-62
2022/09/26 10:15:01;;;;;;;21.80;7.18;;;;;;;10.43;100.00;99803.56;5033237;28;20087;-64
2022/09/26 10:17:28;;;;;;;19.95;7.03;;;;;;;10.53;100.00;99802.56;5040749;28;20471;-62
2022/09/26 10:19:53;;;;;;;20.60;7.05;;;;;;;10.53;100.00;99799.03;5038036;28;20029;-62
2022/09/26 10:22:28;;;;;;;20.55;7.47;;;;;;;10.60;100.00;99798.06;5036058;28;20033;-62
2022/09/26 10:25:20;;;;;;;20.75;7.07;;;;;;;10.51;100.00;99795.53;5037819;28;20033;-63
2022/09/26 10:27:50;;;;;;;20.20;6.63;;;;;;;10.39;100.00;99815.06;5036453;28;20033;-63
2022/09/26 10:30:18;;;;;;;20.70;7.28;;;;;;;10.36;100.00;99793.97;5069502;28;20029;-63
2022/09/26 10:32:50;;;;;;;20.30;6.57;;;;;;;10.34;100.00;99817.75;5086016;28;20028;-64
2022/09/26 10:35:20;;;;;;;19.48;6.80;;;;;;;10.29;100.00;99777.25;5088283;28;20058;-63
2022/09/26 10:37:58;;;;;;;21.42;7.28;;;;;;;10.28;100.00;99775.50;5091612;28;20552;-63
2022/09/26 10:40:49;;;;;;;20.83;7.40;;;;;;;10.28;100.00;99780.78;5088167;28;20047;-63
2022/09/26 10:43:19;;;;;;;21.20;7.32;;;;;;;10.25;100.00;99771.16;5091307;28;20471;-63
2022/09/26 10:45:47;;;;;;;20.33;7.65;;;;;;;10.26;100.00;99774.66;5088507;28;20411;-64
2022/09/26 10:48:20;;;;;;;22.25;7.47;;;;;;;10.30;100.00;99771.09;5085491;28;20029;-64
2022/09/26 10:50:51;;;;;;;19.35;7.07;;;;;;;10.26;100.00;99766.72;5085800;28;20471;-63
2022/09/26 10:53:18;;;;;;;21.88;6.93;;;;;;;10.20;100.00;99766.81;5085943;28;20012;-64
2022/09/26 10:55:58;;;;;;;20.17;7.40;;;;;;;10.23;100.00;99764.13;5082597;28;20111;-65
2022/09/26 10:58:28;;;;;;;20.40;7.40;;;;;;;10.20;100.00;99741.25;5086149;28;20033;-64
2022/09/26 11:00:56;;;;;;;21.95;7.82;;;;;;;10.23;100.00;99758.84;5084154;28;20028;-64
2022/09/26 11:03:45;;;;;;;22.27;7.90;;;;;;;10.25;100.00;99757.06;5080687;28;20089;-64
2022/09/26 11:06:24;;;;;;;21.90;8.52;;;;;;;10.33;100.00;99768.41;5017506;28;20404;-64
2022/09/26 11:08:55;;;;;;;21.52;7.90;;;;;;;10.28;100.00;99757.00;5021706;28;20044;-65
2022/09/26 11:11:21;;;;;;;21.60;8.32;;;;;;;10.32;100.00;99750.81;5019738;28;20386;-65
2022/09/26 11:14:07;;;;;;;22.63;8.80;;;;;;;10.35;100.00;99748.16;5021601;28;20177;-64
2022/09/26 11:16:42;;;;;;;21.45;8.20;;;;;;;10.34;100.00;99743.78;5008487;28;20041;-65
2022/09/26 11:19:27;;;;;;;21.80;8.77;;;;;;;10.33;100.00;99747.28;5014620;28;20032;-66
2022/09/26 11:22:31;;;;;;;21.55;8.85;;;;;;;10.34;100.00;99743.78;4997713;28;20484;-66
2022/09/26 11:25:17;;;;;;;21.55;8.80;;;;;;;10.33;100.00;99742.00;5012388;28;20175;-67
2022/09/26 11:27:51;;;;;;;21.42;8.45;;;;;;;10.28;100.00;99738.53;5016261;28;20049;-67
2022/09/26 11:30:19;;;;;;;20.88;8.35;;;;;;;10.23;100.00;99741.22;5017438;28;20546;-69
2022/09/26 11:33:11;;;;;;;22.25;8.82;;;;;;;10.19;100.00;99728.94;5014317;28;20026;-68
2022/09/26 11:36:03;;;;;;;21.27;8.07;;;;;;;10.20;100.00;99737.75;5016538;28;20057;-66
2022/09/26 11:38:41;;;;;;;20.50;8.60;;;;;;;10.21;100.00;99726.31;5016306;28;20022;-66
2022/09/26 11:41:51;;;;;;;20.63;8.48;;;;;;;10.22;100.00;99722.75;5014696;28;20457;-66
2022/09/26 11:44:41;;;;;;;22.40;8.85;;;;;;;10.23;100.00;99728.03;5079407;28;20044;-65
2022/09/26 11:47:13;;;;;;;21.35;9.07;;;;;;;10.25;100.00;99728.00;5086287;28;20480;-66
2022/09/26 11:49:48;;;;;;;22.92;9.50;;;;;;;10.30;100.00;99718.25;5089433;28;20031;-68